sensor_id;sensor_type;location;lat;lon;timestamp;P1;durP1;ratioP1;P2;durP2;ratioP2
43552;SDS011;29153;42.696;23.218;2023-06-05T00:00:54;13.83;;;7.65;;
43552;SDS011;29153;42.696;23.218;2023-06-05T00:03:22;15.53;;;8.08;;
43552;SDS011;29153;42.696;23.218;2023-06-05T00:05:51;12.63;;;7.87;;
43552;SDS011;29153;42.696;23.218;2023-06-05T00:08:19;13.55;;;8.30;;
43552;SDS011;29153;42.696;23.218;2023-06-05T00:10:46;16.48;;;8.43;;
43552;SDS011;29153;42.696;23.218;2023-06-05T00:13:14;13.08;;;8.38;;
43552;SDS011;29153;42.696;23.218;2023-06-05T00:15:42;15.90;;;8.25;;
43552;SDS011;29153;42.696;23.218;2023-06-05T00:18:09;15.60;;;8.88;;
43552;SDS011;29153;42.696;23.218;2023-06-05T00:20:37;14.60;;;8.15;;
43552;SDS011;29153;42.696;23.218;2023-06-05T00:23:05;15.20;;;8.93;;
43552;SDS011;29153;42.696;23.218;2023-06-05T00:25:32;16.12;;;8.40;;
43552;SDS011;29153;42.696;23.218;2023-06-05T00:28:00;15.65;;;8.90;;
43552;SDS011;29153;42.696;23.218;2023-06-05T00:30:27;12.60;;;8.30;;
43552;SDS011;29153;42.696;23.218;2023-06-05T00:32:55;15.30;;;8.80;;
43552;SDS011;29153;42.696;23.218;2023-06-05T00:35:23;14.33;;;8.50;;
43552;SDS011;29153;42.696;23.218;2023-06-05T00:37:51;18.82;;;8.83;;
43552;SDS011;29153;42.696;23.218;2023-06-05T00:40:18;15.53;;;8.80;;
43552;SDS011;29153;42.696;23.218;2023-06-05T00:42:46;16.85;;;9.53;;
43552;SDS011;29153;42.696;23.218;2023-06-05T00:45:13;15.35;;;8.68;;
43552;SDS011;29153;42.696;23.218;2023-06-05T00:47:41;18.05;;;8.70;;
43552;SDS011;29153;42.696;23.218;2023-06-05T00:50:09;16.23;;;8.53;;
43552;SDS011;29153;42.696;23.218;2023-06-05T00:52:37;15.03;;;8.55;;
43552;SDS011;29153;42.696;23.218;2023-06-05T00:55:07;15.88;;;8.70;;
43552;SDS011;29153;42.696;23.218;2023-06-05T00:57:35;15.32;;;8.93;;
43552;SDS011;29153;42.696;23.218;2023-06-05T01:00:06;13.48;;;9.18;;
43552;SDS011;29153;42.696;23.218;2023-06-05T01:02:35;17.30;;;8.80;;
43552;SDS011;29153;42.696;23.218;2023-06-05T01:05:03;14.55;;;9.15;;
43552;SDS011;29153;42.696;23.218;2023-06-05T01:07:31;14.75;;;9.00;;
43552;SDS011;29153;42.696;23.218;2023-06-05T01:10:01;16.30;;;8.30;;
43552;SDS011;29153;42.696;23.218;2023-06-05T01:12:33;13.10;;;8.58;;
43552;SDS011;29153;42.696;23.218;2023-06-05T01:15:01;26.60;;;8.05;;
43552;SDS011;29153;42.696;23.218;2023-06-05T01:17:30;16.97;;;9.40;;
43552;SDS011;29153;42.696;23.218;2023-06-05T01:19:59;14.07;;;9.18;;
43552;SDS011;29153;42.696;23.218;2023-06-05T01:22:32;16.45;;;8.45;;
43552;SDS011;29153;42.696;23.218;2023-06-05T01:25:00;12.93;;;8.18;;
43552;SDS011;29153;42.696;23.218;2023-06-05T01:27:37;14.93;;;8.48;;
43552;SDS011;29153;42.696;23.218;2023-06-05T01:30:18;14.50;;;8.63;;
43552;SDS011;29153;42.696;23.218;2023-06-05T01:32:50;14.38;;;8.60;;
43552;SDS011;29153;42.696;23.218;2023-06-05T01:35:22;14.05;;;8.35;;
43552;SDS011;29153;42.696;23.218;2023-06-05T01:37:52;12.50;;;8.55;;
43552;SDS011;29153;42.696;23.218;2023-06-05T01:40:21;13.72;;;8.43;;
43552;SDS011;29153;42.696;23.218;2023-06-05T01:42:51;16.37;;;8.98;;
43552;SDS011;29153;42.696;23.218;2023-06-05T01:45:20;14.43;;;8.93;;
43552;SDS011;29153;42.696;23.218;2023-06-05T01:47:49;13.20;;;8.15;;
43552;SDS011;29153;42.696;23.218;2023-06-05T01:50:17;14.07;;;8.38;;
43552;SDS011;29153;42.696;23.218;2023-06-05T01:52:46;14.60;;;9.15;;
43552;SDS011;29153;42.696;23.218;2023-06-05T01:55:15;13.88;;;9.00;;
43552;SDS011;29153;42.696;23.218;2023-06-05T01:57:45;14.53;;;7.97;;
43552;SDS011;29153;42.696;23.218;2023-06-05T02:02:45;13.10;;;8.48;;
43552;SDS011;29153;42.696;23.218;2023-06-05T02:05:13;14.93;;;7.70;;
43552;SDS011;29153;42.696;23.218;2023-06-05T02:07:45;13.90;;;8.73;;
43552;SDS011;29153;42.696;23.218;2023-06-05T02:10:16;17.57;;;8.90;;
43552;SDS011;29153;42.696;23.218;2023-06-05T02:12:44;17.80;;;8.65;;
43552;SDS011;29153;42.696;23.218;2023-06-05T02:15:12;16.35;;;8.40;;
43552;SDS011;29153;42.696;23.218;2023-06-05T02:17:40;12.82;;;8.28;;
43552;SDS011;29153;42.696;23.218;2023-06-05T02:20:13;14.00;;;8.40;;
43552;SDS011;29153;42.696;23.218;2023-06-05T02:22:41;13.98;;;8.43;;
43552;SDS011;29153;42.696;23.218;2023-06-05T02:25:14;13.25;;;8.08;;
43552;SDS011;29153;42.696;23.218;2023-06-05T02:27:42;14.60;;;8.23;;
43552;SDS011;29153;42.696;23.218;2023-06-05T02:30:10;13.75;;;8.28;;
43552;SDS011;29153;42.696;23.218;2023-06-05T02:32:38;15.53;;;8.38;;
43552;SDS011;29153;42.696;23.218;2023-06-05T02:35:10;15.65;;;8.00;;
43552;SDS011;29153;42.696;23.218;2023-06-05T02:40:12;15.35;;;8.03;;
43552;SDS011;29153;42.696;23.218;2023-06-05T02:42:40;15.58;;;8.83;;
43552;SDS011;29153;42.696;23.218;2023-06-05T02:45:08;12.88;;;8.23;;
43552;SDS011;29153;42.696;23.218;2023-06-05T02:47:36;14.18;;;8.70;;
43552;SDS011;29153;42.696;23.218;2023-06-05T02:50:04;15.40;;;8.30;;
43552;SDS011;29153;42.696;23.218;2023-06-05T02:52:32;14.47;;;8.55;;
43552;SDS011;29153;42.696;23.218;2023-06-05T02:57:30;14.10;;;8.38;;
43552;SDS011;29153;42.696;23.218;2023-06-05T03:00:03;15.00;;;8.18;;
43552;SDS011;29153;42.696;23.218;2023-06-05T03:02:33;18.77;;;8.40;;
43552;SDS011;29153;42.696;23.218;2023-06-05T03:05:02;17.02;;;8.70;;
43552;SDS011;29153;42.696;23.218;2023-06-05T03:07:30;14.58;;;8.60;;
43552;SDS011;29153;42.696;23.218;2023-06-05T03:10:00;14.55;;;8.40;;
43552;SDS011;29153;42.696;23.218;2023-06-05T03:12:28;14.47;;;8.20;;
43552;SDS011;29153;42.696;23.218;2023-06-05T03:14:55;14.45;;;8.45;;
43552;SDS011;29153;42.696;23.218;2023-06-05T03:17:23;14.83;;;8.50;;
43552;SDS011;29153;42.696;23.218;2023-06-05T03:19:50;16.32;;;9.58;;
43552;SDS011;29153;42.696;23.218;2023-06-05T03:22:18;14.18;;;8.70;;
43552;SDS011;29153;42.696;23.218;2023-06-05T03:24:46;17.05;;;9.63;;
43552;SDS011;29153;42.696;23.218;2023-06-05T03:27:13;15.48;;;9.13;;
43552;SDS011;29153;42.696;23.218;2023-06-05T03:29:41;15.28;;;8.50;;
43552;SDS011;29153;42.696;23.218;2023-06-05T03:32:09;16.27;;;9.13;;
43552;SDS011;29153;42.696;23.218;2023-06-05T03:34:36;21.68;;;9.90;;
43552;SDS011;29153;42.696;23.218;2023-06-05T03:37:05;16.12;;;9.98;;
43552;SDS011;29153;42.696;23.218;2023-06-05T03:39:33;19.82;;;9.98;;
43552;SDS011;29153;42.696;23.218;2023-06-05T03:42:00;16.57;;;10.35;;
43552;SDS011;29153;42.696;23.218;2023-06-05T03:44:28;18.15;;;10.63;;
43552;SDS011;29153;42.696;23.218;2023-06-05T03:46:55;19.00;;;10.70;;
43552;SDS011;29153;42.696;23.218;2023-06-05T03:49:23;19.52;;;10.10;;
43552;SDS011;29153;42.696;23.218;2023-06-05T03:51:51;17.23;;;9.65;;
43552;SDS011;29153;42.696;23.218;2023-06-05T03:54:19;22.65;;;10.48;;
43552;SDS011;29153;42.696;23.218;2023-06-05T03:56:48;21.17;;;11.40;;
43552;SDS011;29153;42.696;23.218;2023-06-05T03:59:17;22.40;;;11.03;;
43552;SDS011;29153;42.696;23.218;2023-06-05T04:01:45;19.62;;;10.45;;
43552;SDS011;29153;42.696;23.218;2023-06-05T04:04:13;19.77;;;10.98;;
43552;SDS011;29153;42.696;23.218;2023-06-05T04:11:42;24.37;;;11.33;;
43552;SDS011;29153;42.696;23.218;2023-06-05T04:14:11;24.85;;;12.68;;
43552;SDS011;29153;42.696;23.218;2023-06-05T04:16:40;26.27;;;12.63;;
43552;SDS011;29153;42.696;23.218;2023-06-05T04:21:36;32.10;;;12.68;;
43552;SDS011;29153;42.696;23.218;2023-06-05T04:24:07;35.25;;;14.33;;
43552;SDS011;29153;42.696;23.218;2023-06-05T04:26:36;32.73;;;13.78;;
43552;SDS011;29153;42.696;23.218;2023-06-05T04:29:07;36.73;;;14.28;;
43552;SDS011;29153;42.696;23.218;2023-06-05T04:31:45;30.50;;;13.28;;
43552;SDS011;29153;42.696;23.218;2023-06-05T04:34:13;34.50;;;14.58;;
43552;SDS011;29153;42.696;23.218;2023-06-05T04:36:42;31.90;;;13.90;;
43552;SDS011;29153;42.696;23.218;2023-06-05T04:39:10;34.27;;;14.20;;
43552;SDS011;29153;42.696;23.218;2023-06-05T04:41:45;33.05;;;13.65;;
43552;SDS011;29153;42.696;23.218;2023-06-05T04:44:12;34.73;;;14.20;;
43552;SDS011;29153;42.696;23.218;2023-06-05T04:46:42;29.30;;;13.88;;
43552;SDS011;29153;42.696;23.218;2023-06-05T04:49:16;31.33;;;14.45;;
43552;SDS011;29153;42.696;23.218;2023-06-05T04:51:40;30.88;;;14.78;;
43552;SDS011;29153;42.696;23.218;2023-06-05T04:54:09;27.90;;;14.07;;
43552;SDS011;29153;42.696;23.218;2023-06-05T04:56:37;22.62;;;13.35;;
43552;SDS011;29153;42.696;23.218;2023-06-05T04:59:05;26.77;;;14.18;;
43552;SDS011;29153;42.696;23.218;2023-06-05T05:01:32;25.12;;;13.55;;
43552;SDS011;29153;42.696;23.218;2023-06-05T05:04:00;23.02;;;13.65;;
43552;SDS011;29153;42.696;23.218;2023-06-05T05:06:28;31.23;;;14.68;;
43552;SDS011;29153;42.696;23.218;2023-06-05T05:08:56;25.65;;;13.68;;
43552;SDS011;29153;42.696;23.218;2023-06-05T05:13:52;25.80;;;13.38;;
43552;SDS011;29153;42.696;23.218;2023-06-05T05:16:20;23.62;;;12.93;;
43552;SDS011;29153;42.696;23.218;2023-06-05T05:18:48;24.35;;;13.30;;
43552;SDS011;29153;42.696;23.218;2023-06-05T05:21:15;23.15;;;13.53;;
43552;SDS011;29153;42.696;23.218;2023-06-05T05:26:10;26.77;;;14.23;;
43552;SDS011;29153;42.696;23.218;2023-06-05T05:28:38;25.05;;;13.80;;
43552;SDS011;29153;42.696;23.218;2023-06-05T05:31:05;25.92;;;13.80;;
43552;SDS011;29153;42.696;23.218;2023-06-05T05:33:33;23.40;;;13.60;;
43552;SDS011;29153;42.696;23.218;2023-06-05T05:36:01;23.10;;;13.58;;
43552;SDS011;29153;42.696;23.218;2023-06-05T05:38:29;22.48;;;13.35;;
43552;SDS011;29153;42.696;23.218;2023-06-05T05:40:57;22.42;;;13.60;;
43552;SDS011;29153;42.696;23.218;2023-06-05T05:43:25;24.67;;;14.65;;
43552;SDS011;29153;42.696;23.218;2023-06-05T05:45:52;21.48;;;13.93;;
43552;SDS011;29153;42.696;23.218;2023-06-05T05:48:20;22.98;;;14.10;;
43552;SDS011;29153;42.696;23.218;2023-06-05T05:50:48;22.32;;;13.90;;
43552;SDS011;29153;42.696;23.218;2023-06-05T05:53:16;28.70;;;15.15;;
43552;SDS011;29153;42.696;23.218;2023-06-05T05:58:11;22.02;;;13.83;;
43552;SDS011;29153;42.696;23.218;2023-06-05T06:00:38;27.85;;;15.72;;
43552;SDS011;29153;42.696;23.218;2023-06-05T06:03:06;26.95;;;14.53;;
43552;SDS011;29153;42.696;23.218;2023-06-05T06:05:34;27.67;;;14.47;;
43552;SDS011;29153;42.696;23.218;2023-06-05T06:08:03;23.57;;;14.68;;
43552;SDS011;29153;42.696;23.218;2023-06-05T06:10:30;24.32;;;15.20;;
43552;SDS011;29153;42.696;23.218;2023-06-05T06:12:58;22.93;;;14.47;;
43552;SDS011;29153;42.696;23.218;2023-06-05T06:15:26;22.80;;;14.55;;
43552;SDS011;29153;42.696;23.218;2023-06-05T06:17:53;25.05;;;14.60;;
43552;SDS011;29153;42.696;23.218;2023-06-05T06:20:22;22.60;;;14.50;;
43552;SDS011;29153;42.696;23.218;2023-06-05T06:22:50;24.15;;;15.28;;
43552;SDS011;29153;42.696;23.218;2023-06-05T06:25:19;25.50;;;14.58;;
43552;SDS011;29153;42.696;23.218;2023-06-05T06:27:48;24.15;;;12.78;;
43552;SDS011;29153;42.696;23.218;2023-06-05T06:30:17;22.55;;;13.72;;
43552;SDS011;29153;42.696;23.218;2023-06-05T06:32:45;20.80;;;13.35;;
43552;SDS011;29153;42.696;23.218;2023-06-05T06:35:13;20.62;;;12.33;;
43552;SDS011;29153;42.696;23.218;2023-06-05T06:37:41;19.82;;;11.22;;
43552;SDS011;29153;42.696;23.218;2023-06-05T06:40:10;20.48;;;11.75;;
43552;SDS011;29153;42.696;23.218;2023-06-05T06:42:37;19.98;;;11.55;;
43552;SDS011;29153;42.696;23.218;2023-06-05T06:45:05;16.30;;;10.53;;
43552;SDS011;29153;42.696;23.218;2023-06-05T06:47:34;16.45;;;9.93;;
43552;SDS011;29153;42.696;23.218;2023-06-05T06:50:01;18.75;;;10.40;;
43552;SDS011;29153;42.696;23.218;2023-06-05T06:52:29;17.35;;;10.05;;
43552;SDS011;29153;42.696;23.218;2023-06-05T06:54:57;20.12;;;10.70;;
43552;SDS011;29153;42.696;23.218;2023-06-05T06:57:24;17.23;;;10.20;;
43552;SDS011;29153;42.696;23.218;2023-06-05T06:59:52;18.23;;;11.15;;
43552;SDS011;29153;42.696;23.218;2023-06-05T07:02:20;15.68;;;10.03;;
43552;SDS011;29153;42.696;23.218;2023-06-05T07:04:49;16.73;;;9.48;;
43552;SDS011;29153;42.696;23.218;2023-06-05T07:07:19;16.23;;;10.28;;
43552;SDS011;29153;42.696;23.218;2023-06-05T07:09:49;16.12;;;9.80;;
43552;SDS011;29153;42.696;23.218;2023-06-05T07:12:20;17.30;;;9.98;;
43552;SDS011;29153;42.696;23.218;2023-06-05T07:14:48;16.48;;;10.38;;
43552;SDS011;29153;42.696;23.218;2023-06-05T07:17:16;19.95;;;10.95;;
43552;SDS011;29153;42.696;23.218;2023-06-05T07:19:43;17.50;;;9.88;;
43552;SDS011;29153;42.696;23.218;2023-06-05T07:22:11;17.17;;;9.90;;
43552;SDS011;29153;42.696;23.218;2023-06-05T07:24:39;17.10;;;9.35;;
43552;SDS011;29153;42.696;23.218;2023-06-05T07:27:07;15.38;;;9.03;;
43552;SDS011;29153;42.696;23.218;2023-06-05T07:29:35;15.70;;;9.45;;
43552;SDS011;29153;42.696;23.218;2023-06-05T07:32:03;15.68;;;9.78;;
43552;SDS011;29153;42.696;23.218;2023-06-05T07:34:32;16.93;;;10.45;;
43552;SDS011;29153;42.696;23.218;2023-06-05T07:37:01;17.37;;;10.55;;
43552;SDS011;29153;42.696;23.218;2023-06-05T07:39:29;15.93;;;10.50;;
43552;SDS011;29153;42.696;23.218;2023-06-05T07:41:57;19.15;;;10.88;;
43552;SDS011;29153;42.696;23.218;2023-06-05T07:44:25;15.32;;;10.03;;
43552;SDS011;29153;42.696;23.218;2023-06-05T07:46:52;18.42;;;10.28;;
43552;SDS011;29153;42.696;23.218;2023-06-05T07:49:20;17.77;;;10.93;;
43552;SDS011;29153;42.696;23.218;2023-06-05T07:51:49;16.05;;;9.88;;
43552;SDS011;29153;42.696;23.218;2023-06-05T07:54:17;19.60;;;10.93;;
43552;SDS011;29153;42.696;23.218;2023-06-05T07:56:46;22.58;;;11.05;;
43552;SDS011;29153;42.696;23.218;2023-06-05T07:59:21;16.65;;;10.20;;
43552;SDS011;29153;42.696;23.218;2023-06-05T08:01:51;16.77;;;10.38;;
43552;SDS011;29153;42.696;23.218;2023-06-05T08:04:19;20.00;;;10.28;;
43552;SDS011;29153;42.696;23.218;2023-06-05T08:06:48;19.92;;;10.88;;
43552;SDS011;29153;42.696;23.218;2023-06-05T08:09:15;19.15;;;11.75;;
43552;SDS011;29153;42.696;23.218;2023-06-05T08:11:43;21.80;;;12.23;;
43552;SDS011;29153;42.696;23.218;2023-06-05T08:16:38;18.87;;;10.75;;
43552;SDS011;29153;42.696;23.218;2023-06-05T08:19:05;19.12;;;10.93;;
43552;SDS011;29153;42.696;23.218;2023-06-05T08:21:33;16.07;;;9.83;;
43552;SDS011;29153;42.696;23.218;2023-06-05T08:24:03;19.12;;;10.63;;
43552;SDS011;29153;42.696;23.218;2023-06-05T08:28:59;17.80;;;10.23;;
43552;SDS011;29153;42.696;23.218;2023-06-05T08:31:28;16.15;;;10.28;;
43552;SDS011;29153;42.696;23.218;2023-06-05T08:33:57;17.60;;;10.55;;
43552;SDS011;29153;42.696;23.218;2023-06-05T08:36:25;17.62;;;10.80;;
43552;SDS011;29153;42.696;23.218;2023-06-05T08:38:52;21.30;;;10.93;;
43552;SDS011;29153;42.696;23.218;2023-06-05T08:41:20;20.27;;;11.30;;
43552;SDS011;29153;42.696;23.218;2023-06-05T08:43:49;18.37;;;10.75;;
43552;SDS011;29153;42.696;23.218;2023-06-05T08:46:17;16.82;;;9.98;;
43552;SDS011;29153;42.696;23.218;2023-06-05T08:48:46;20.62;;;10.85;;
43552;SDS011;29153;42.696;23.218;2023-06-05T08:51:19;20.05;;;10.32;;
43552;SDS011;29153;42.696;23.218;2023-06-05T08:53:48;18.15;;;10.23;;
43552;SDS011;29153;42.696;23.218;2023-06-05T08:56:17;18.92;;;10.48;;
43552;SDS011;29153;42.696;23.218;2023-06-05T08:58:45;16.35;;;10.13;;
43552;SDS011;29153;42.696;23.218;2023-06-05T09:01:15;15.32;;;9.68;;
43552;SDS011;29153;42.696;23.218;2023-06-05T09:03:43;21.80;;;10.48;;
43552;SDS011;29153;42.696;23.218;2023-06-05T09:06:10;16.87;;;9.75;;
43552;SDS011;29153;42.696;23.218;2023-06-05T09:08:38;16.55;;;10.18;;
43552;SDS011;29153;42.696;23.218;2023-06-05T09:11:25;19.57;;;10.98;;
43552;SDS011;29153;42.696;23.218;2023-06-05T09:13:57;17.80;;;10.80;;
43552;SDS011;29153;42.696;23.218;2023-06-05T09:16:36;17.60;;;10.53;;
43552;SDS011;29153;42.696;23.218;2023-06-05T09:19:06;16.90;;;9.73;;
43552;SDS011;29153;42.696;23.218;2023-06-05T09:21:35;17.23;;;10.45;;
43552;SDS011;29153;42.696;23.218;2023-06-05T09:26:46;16.73;;;9.55;;
43552;SDS011;29153;42.696;23.218;2023-06-05T09:29:24;16.20;;;9.85;;
43552;SDS011;29153;42.696;23.218;2023-06-05T09:31:54;17.42;;;10.10;;
43552;SDS011;29153;42.696;23.218;2023-06-05T09:34:27;15.95;;;10.00;;
43552;SDS011;29153;42.696;23.218;2023-06-05T09:36:59;16.45;;;9.83;;
43552;SDS011;29153;42.696;23.218;2023-06-05T09:39:29;14.73;;;10.00;;
43552;SDS011;29153;42.696;23.218;2023-06-05T09:41:58;15.63;;;9.13;;
43552;SDS011;29153;42.696;23.218;2023-06-05T09:44:27;16.73;;;9.90;;
43552;SDS011;29153;42.696;23.218;2023-06-05T09:46:59;18.02;;;10.15;;
43552;SDS011;29153;42.696;23.218;2023-06-05T09:49:30;14.00;;;9.15;;
43552;SDS011;29153;42.696;23.218;2023-06-05T09:51:59;17.77;;;9.93;;
43552;SDS011;29153;42.696;23.218;2023-06-05T09:54:28;18.70;;;9.48;;
43552;SDS011;29153;42.696;23.218;2023-06-05T09:56:59;14.50;;;8.80;;
43552;SDS011;29153;42.696;23.218;2023-06-05T09:59:30;17.75;;;9.18;;
43552;SDS011;29153;42.696;23.218;2023-06-05T10:02:00;14.30;;;8.40;;
43552;SDS011;29153;42.696;23.218;2023-06-05T10:04:33;12.80;;;8.83;;
43552;SDS011;29153;42.696;23.218;2023-06-05T10:07:02;14.30;;;8.90;;
43552;SDS011;29153;42.696;23.218;2023-06-05T10:09:31;11.80;;;8.00;;
43552;SDS011;29153;42.696;23.218;2023-06-05T10:11:59;13.03;;;7.80;;
43552;SDS011;29153;42.696;23.218;2023-06-05T10:14:27;15.25;;;8.40;;
43552;SDS011;29153;42.696;23.218;2023-06-05T10:16:55;14.75;;;9.60;;
43552;SDS011;29153;42.696;23.218;2023-06-05T10:19:23;16.40;;;8.60;;
43552;SDS011;29153;42.696;23.218;2023-06-05T10:21:51;13.78;;;8.75;;
43552;SDS011;29153;42.696;23.218;2023-06-05T10:29:43;14.98;;;7.60;;
43552;SDS011;29153;42.696;23.218;2023-06-05T10:37:47;11.57;;;6.75;;
43552;SDS011;29153;42.696;23.218;2023-06-05T10:40:31;14.47;;;6.47;;
43552;SDS011;29153;42.696;23.218;2023-06-05T10:45:52;10.35;;;6.47;;
43552;SDS011;29153;42.696;23.218;2023-06-05T10:48:20;14.50;;;7.97;;
43552;SDS011;29153;42.696;23.218;2023-06-05T10:50:47;15.03;;;6.80;;
43552;SDS011;29153;42.696;23.218;2023-06-05T10:56:56;11.08;;;6.67;;
43552;SDS011;29153;42.696;23.218;2023-06-05T10:59:11;12.93;;;6.58;;
43552;SDS011;29153;42.696;23.218;2023-06-05T11:01:40;8.28;;;4.92;;
43552;SDS011;29153;42.696;23.218;2023-06-05T11:04:07;9.20;;;5.33;;
43552;SDS011;29153;42.696;23.218;2023-06-05T11:06:37;9.80;;;5.37;;
43552;SDS011;29153;42.696;23.218;2023-06-05T11:12:21;9.18;;;5.15;;
43552;SDS011;29153;42.696;23.218;2023-06-05T11:17:25;7.58;;;4.87;;
43552;SDS011;29153;42.696;23.218;2023-06-05T11:19:57;9.65;;;5.28;;
43552;SDS011;29153;42.696;23.218;2023-06-05T11:22:26;7.92;;;4.87;;
43552;SDS011;29153;42.696;23.218;2023-06-05T11:27:49;8.65;;;5.00;;
43552;SDS011;29153;42.696;23.218;2023-06-05T11:30:19;12.00;;;5.22;;
43552;SDS011;29153;42.696;23.218;2023-06-05T11:32:48;8.98;;;5.00;;
43552;SDS011;29153;42.696;23.218;2023-06-05T11:35:21;10.30;;;5.20;;
43552;SDS011;29153;42.696;23.218;2023-06-05T11:37:49;9.33;;;5.00;;
43552;SDS011;29153;42.696;23.218;2023-06-05T11:40:25;8.75;;;4.45;;
43552;SDS011;29153;42.696;23.218;2023-06-05T11:42:53;7.28;;;4.50;;
43552;SDS011;29153;42.696;23.218;2023-06-05T11:45:23;7.75;;;5.10;;
43552;SDS011;29153;42.696;23.218;2023-06-05T11:47:51;7.05;;;4.42;;
43552;SDS011;29153;42.696;23.218;2023-06-05T11:50:18;7.97;;;4.92;;
43552;SDS011;29153;42.696;23.218;2023-06-05T11:52:50;9.00;;;5.03;;
43552;SDS011;29153;42.696;23.218;2023-06-05T11:55:21;8.98;;;4.90;;
43552;SDS011;29153;42.696;23.218;2023-06-05T11:57:51;11.45;;;4.67;;
43552;SDS011;29153;42.696;23.218;2023-06-05T12:00:22;7.72;;;4.78;;
43552;SDS011;29153;42.696;23.218;2023-06-05T12:02:51;7.08;;;4.92;;
43552;SDS011;29153;42.696;23.218;2023-06-05T12:05:19;11.50;;;5.05;;
43552;SDS011;29153;42.696;23.218;2023-06-05T12:10:16;8.53;;;5.03;;
43552;SDS011;29153;42.696;23.218;2023-06-05T12:12:53;10.25;;;5.25;;
43552;SDS011;29153;42.696;23.218;2023-06-05T12:15:23;12.85;;;5.47;;
43552;SDS011;29153;42.696;23.218;2023-06-05T12:17:52;8.08;;;5.10;;
43552;SDS011;29153;42.696;23.218;2023-06-05T12:20:21;8.55;;;4.97;;
43552;SDS011;29153;42.696;23.218;2023-06-05T12:22:49;7.60;;;4.92;;
43552;SDS011;29153;42.696;23.218;2023-06-05T12:25:21;9.35;;;5.35;;
43552;SDS011;29153;42.696;23.218;2023-06-05T12:27:48;9.08;;;4.70;;
43552;SDS011;29153;42.696;23.218;2023-06-05T12:30:18;9.15;;;4.60;;
43552;SDS011;29153;42.696;23.218;2023-06-05T12:32:46;8.45;;;4.55;;
43552;SDS011;29153;42.696;23.218;2023-06-05T12:35:17;8.68;;;4.60;;
43552;SDS011;29153;42.696;23.218;2023-06-05T12:37:47;6.90;;;4.55;;
43552;SDS011;29153;42.696;23.218;2023-06-05T12:40:15;8.35;;;4.83;;
43552;SDS011;29153;42.696;23.218;2023-06-05T12:42:47;8.63;;;4.22;;
43552;SDS011;29153;42.696;23.218;2023-06-05T12:45:15;11.65;;;7.00;;
43552;SDS011;29153;42.696;23.218;2023-06-05T12:47:43;8.48;;;4.90;;
43552;SDS011;29153;42.696;23.218;2023-06-05T12:50:11;8.55;;;4.78;;
43552;SDS011;29153;42.696;23.218;2023-06-05T12:52:39;6.03;;;3.77;;
43552;SDS011;29153;42.696;23.218;2023-06-05T12:55:07;6.25;;;4.05;;
43552;SDS011;29153;42.696;23.218;2023-06-05T12:57:35;10.45;;;4.40;;
43552;SDS011;29153;42.696;23.218;2023-06-05T13:00:03;6.28;;;3.95;;
43552;SDS011;29153;42.696;23.218;2023-06-05T13:02:41;7.30;;;4.40;;
43552;SDS011;29153;42.696;23.218;2023-06-05T13:05:11;9.15;;;5.05;;
43552;SDS011;29153;42.696;23.218;2023-06-05T13:07:39;7.03;;;4.60;;
43552;SDS011;29153;42.696;23.218;2023-06-05T13:10:07;8.13;;;5.05;;
43552;SDS011;29153;42.696;23.218;2023-06-05T13:12:37;7.15;;;4.53;;
43552;SDS011;29153;42.696;23.218;2023-06-05T13:15:05;6.70;;;4.35;;
43552;SDS011;29153;42.696;23.218;2023-06-05T13:17:33;7.97;;;4.08;;
43552;SDS011;29153;42.696;23.218;2023-06-05T13:20:02;7.20;;;4.42;;
43552;SDS011;29153;42.696;23.218;2023-06-05T13:22:37;8.10;;;4.20;;
43552;SDS011;29153;42.696;23.218;2023-06-05T13:25:10;9.20;;;5.03;;
43552;SDS011;29153;42.696;23.218;2023-06-05T13:27:35;7.75;;;4.95;;
43552;SDS011;29153;42.696;23.218;2023-06-05T13:30:03;7.08;;;3.98;;
43552;SDS011;29153;42.696;23.218;2023-06-05T13:32:32;8.58;;;4.55;;
43552;SDS011;29153;42.696;23.218;2023-06-05T13:34:59;8.45;;;4.00;;
43552;SDS011;29153;42.696;23.218;2023-06-05T13:37:27;7.83;;;3.90;;
43552;SDS011;29153;42.696;23.218;2023-06-05T13:39:54;7.55;;;4.00;;
43552;SDS011;29153;42.696;23.218;2023-06-05T13:42:22;7.03;;;4.67;;
43552;SDS011;29153;42.696;23.218;2023-06-05T13:44:50;10.38;;;4.50;;
43552;SDS011;29153;42.696;23.218;2023-06-05T13:47:17;8.53;;;3.98;;
43552;SDS011;29153;42.696;23.218;2023-06-05T13:49:45;7.58;;;3.77;;
43552;SDS011;29153;42.696;23.218;2023-06-05T13:52:12;7.58;;;4.17;;
43552;SDS011;29153;42.696;23.218;2023-06-05T13:54:40;8.98;;;4.15;;
43552;SDS011;29153;42.696;23.218;2023-06-05T13:57:09;5.65;;;4.10;;
43552;SDS011;29153;42.696;23.218;2023-06-05T13:59:37;7.33;;;3.85;;
43552;SDS011;29153;42.696;23.218;2023-06-05T14:02:05;9.28;;;4.70;;
43552;SDS011;29153;42.696;23.218;2023-06-05T14:04:33;6.15;;;3.98;;
43552;SDS011;29153;42.696;23.218;2023-06-05T14:07:01;6.70;;;4.05;;
43552;SDS011;29153;42.696;23.218;2023-06-05T14:09:29;6.78;;;3.87;;
43552;SDS011;29153;42.696;23.218;2023-06-05T14:11:56;8.23;;;4.00;;
43552;SDS011;29153;42.696;23.218;2023-06-05T14:14:24;10.08;;;4.40;;
43552;SDS011;29153;42.696;23.218;2023-06-05T14:16:51;10.75;;;4.28;;
43552;SDS011;29153;42.696;23.218;2023-06-05T14:19:19;5.55;;;4.03;;
43552;SDS011;29153;42.696;23.218;2023-06-05T14:21:47;7.15;;;4.00;;
43552;SDS011;29153;42.696;23.218;2023-06-05T14:24:15;9.85;;;4.15;;
43552;SDS011;29153;42.696;23.218;2023-06-05T14:26:45;7.85;;;4.30;;
43552;SDS011;29153;42.696;23.218;2023-06-05T14:29:12;8.73;;;4.25;;
43552;SDS011;29153;42.696;23.218;2023-06-05T14:31:40;7.53;;;4.47;;
43552;SDS011;29153;42.696;23.218;2023-06-05T14:34:07;7.42;;;4.37;;
43552;SDS011;29153;42.696;23.218;2023-06-05T14:36:35;7.42;;;4.00;;
43552;SDS011;29153;42.696;23.218;2023-06-05T14:39:03;8.25;;;4.37;;
43552;SDS011;29153;42.696;23.218;2023-06-05T14:41:31;6.70;;;4.65;;
43552;SDS011;29153;42.696;23.218;2023-06-05T14:43:58;6.45;;;4.10;;
43552;SDS011;29153;42.696;23.218;2023-06-05T14:46:26;6.62;;;4.60;;
43552;SDS011;29153;42.696;23.218;2023-06-05T14:48:53;8.83;;;4.20;;
43552;SDS011;29153;42.696;23.218;2023-06-05T14:51:21;5.87;;;4.62;;
43552;SDS011;29153;42.696;23.218;2023-06-05T14:53:48;9.20;;;4.78;;
43552;SDS011;29153;42.696;23.218;2023-06-05T14:56:16;9.83;;;4.75;;
43552;SDS011;29153;42.696;23.218;2023-06-05T14:58:43;8.65;;;5.05;;
43552;SDS011;29153;42.696;23.218;2023-06-05T15:01:11;8.85;;;4.70;;
43552;SDS011;29153;42.696;23.218;2023-06-05T15:03:39;14.00;;;5.22;;
43552;SDS011;29153;42.696;23.218;2023-06-05T15:08:34;7.67;;;4.70;;
43552;SDS011;29153;42.696;23.218;2023-06-05T15:11:01;11.10;;;4.95;;
43552;SDS011;29153;42.696;23.218;2023-06-05T15:13:29;10.65;;;5.03;;
43552;SDS011;29153;42.696;23.218;2023-06-05T15:15:56;6.45;;;4.92;;
43552;SDS011;29153;42.696;23.218;2023-06-05T15:18:25;6.90;;;4.47;;
43552;SDS011;29153;42.696;23.218;2023-06-05T15:20:52;8.38;;;4.85;;
43552;SDS011;29153;42.696;23.218;2023-06-05T15:23:20;8.90;;;4.60;;
43552;SDS011;29153;42.696;23.218;2023-06-05T15:25:47;8.60;;;4.72;;
43552;SDS011;29153;42.696;23.218;2023-06-05T15:28:15;8.20;;;4.55;;
43552;SDS011;29153;42.696;23.218;2023-06-05T15:30:43;8.03;;;4.53;;